sensor_id;sensor_type;location;lat;lon;timestamp;P1;durP1;ratioP1;P2;durP2;ratioP2
6928;SDS011;3504;52.616;13.238;2022-12-18T00:00:51;53.30;;;20.60;;
6928;SDS011;3504;52.616;13.238;2022-12-18T00:05:52;56.40;;;20.80;;
6928;SDS011;3504;52.616;13.238;2022-12-18T00:10:52;54.13;;;23.20;;
6928;SDS011;3504;52.616;13.238;2022-12-18T00:15:53;54.63;;;21.73;;
6928;SDS011;3504;52.616;13.238;2022-12-18T00:20:53;58.03;;;24.07;;
6928;SDS011;3504;52.616;13.238;2022-12-18T00:25:54;56.03;;;23.87;;
6928;SDS011;3504;52.616;13.238;2022-12-18T00:31:05;52.73;;;22.17;;
6928;SDS011;3504;52.616;13.238;2022-12-18T00:36:12;50.60;;;21.77;;
6928;SDS011;3504;52.616;13.238;2022-12-18T00:41:16;51.00;;;20.67;;
6928;SDS011;3504;52.616;13.238;2022-12-18T00:46:38;56.53;;;22.37;;
6928;SDS011;3504;52.616;13.238;2022-12-18T00:51:39;47.07;;;21.67;;
6928;SDS011;3504;52.616;13.238;2022-12-18T00:56:40;51.40;;;21.50;;
6928;SDS011;3504;52.616;13.238;2022-12-18T01:01:40;57.57;;;21.33;;
6928;SDS011;3504;52.616;13.238;2022-12-18T01:06:41;49.93;;;20.43;;
6928;SDS011;3504;52.616;13.238;2022-12-18T01:11:42;58.03;;;21.73;;
6928;SDS011;3504;52.616;13.238;2022-12-18T01:16:44;55.70;;;22.23;;
6928;SDS011;3504;52.616;13.238;2022-12-18T01:21:45;51.27;;;22.23;;
6928;SDS011;3504;52.616;13.238;2022-12-18T01:26:45;57.20;;;21.57;;
6928;SDS011;3504;52.616;13.238;2022-12-18T01:31:48;57.20;;;20.80;;
6928;SDS011;3504;52.616;13.238;2022-12-18T01:36:49;54.97;;;21.10;;
6928;SDS011;3504;52.616;13.238;2022-12-18T01:41:52;54.70;;;21.20;;
6928;SDS011;3504;52.616;13.238;2022-12-18T01:47:04;48.87;;;21.17;;
6928;SDS011;3504;52.616;13.238;2022-12-18T01:52:05;55.80;;;19.10;;
6928;SDS011;3504;52.616;13.238;2022-12-18T01:57:05;52.57;;;21.20;;
6928;SDS011;3504;52.616;13.238;2022-12-18T02:02:06;52.47;;;20.10;;
6928;SDS011;3504;52.616;13.238;2022-12-18T02:07:20;58.90;;;21.37;;
6928;SDS011;3504;52.616;13.238;2022-12-18T02:18:29;51.87;;;19.83;;
6928;SDS011;3504;52.616;13.238;2022-12-18T02:29:26;51.80;;;20.53;;
6928;SDS011;3504;52.616;13.238;2022-12-18T02:34:36;60.23;;;20.60;;
6928;SDS011;3504;52.616;13.238;2022-12-18T02:39:41;57.40;;;22.17;;
6928;SDS011;3504;52.616;13.238;2022-12-18T02:44:49;53.53;;;21.47;;
6928;SDS011;3504;52.616;13.238;2022-12-18T02:49:59;52.97;;;21.83;;
6928;SDS011;3504;52.616;13.238;2022-12-18T03:06:43;59.73;;;24.03;;
6928;SDS011;3504;52.616;13.238;2022-12-18T03:11:52;62.77;;;23.60;;
6928;SDS011;3504;52.616;13.238;2022-12-18T03:17:17;53.87;;;21.73;;
6928;SDS011;3504;52.616;13.238;2022-12-18T03:22:26;58.67;;;23.93;;
6928;SDS011;3504;52.616;13.238;2022-12-18T03:27:31;62.37;;;23.47;;
6928;SDS011;3504;52.616;13.238;2022-12-18T03:32:46;56.00;;;21.37;;
6928;SDS011;3504;52.616;13.238;2022-12-18T03:38:10;60.17;;;22.07;;
6928;SDS011;3504;52.616;13.238;2022-12-18T03:43:20;48.27;;;19.87;;
6928;SDS011;3504;52.616;13.238;2022-12-18T03:48:48;55.27;;;21.53;;
6928;SDS011;3504;52.616;13.238;2022-12-18T03:54:00;55.37;;;19.90;;
6928;SDS011;3504;52.616;13.238;2022-12-18T03:59:07;54.90;;;21.27;;
6928;SDS011;3504;52.616;13.238;2022-12-18T04:04:11;62.03;;;20.93;;
6928;SDS011;3504;52.616;13.238;2022-12-18T04:09:14;55.63;;;21.43;;
6928;SDS011;3504;52.616;13.238;2022-12-18T04:14:19;44.73;;;17.90;;
6928;SDS011;3504;52.616;13.238;2022-12-18T04:19:24;49.07;;;19.07;;
6928;SDS011;3504;52.616;13.238;2022-12-18T04:24:26;51.10;;;20.97;;
6928;SDS011;3504;52.616;13.238;2022-12-18T04:29:40;51.30;;;20.20;;
6928;SDS011;3504;52.616;13.238;2022-12-18T04:34:41;51.43;;;21.27;;
6928;SDS011;3504;52.616;13.238;2022-12-18T04:39:42;55.27;;;22.07;;
6928;SDS011;3504;52.616;13.238;2022-12-18T04:44:50;54.43;;;21.40;;
6928;SDS011;3504;52.616;13.238;2022-12-18T04:49:50;55.53;;;22.07;;
6928;SDS011;3504;52.616;13.238;2022-12-18T04:54:51;54.23;;;20.53;;
6928;SDS011;3504;52.616;13.238;2022-12-18T04:59:51;49.40;;;19.07;;
6928;SDS011;3504;52.616;13.238;2022-12-18T05:04:52;53.13;;;21.80;;
6928;SDS011;3504;52.616;13.238;2022-12-18T05:09:52;62.40;;;24.40;;
6928;SDS011;3504;52.616;13.238;2022-12-18T05:14:53;49.50;;;20.43;;
6928;SDS011;3504;52.616;13.238;2022-12-18T05:19:53;55.80;;;22.17;;
6928;SDS011;3504;52.616;13.238;2022-12-18T05:24:54;61.60;;;22.63;;
6928;SDS011;3504;52.616;13.238;2022-12-18T05:29:54;56.33;;;21.97;;
6928;SDS011;3504;52.616;13.238;2022-12-18T05:34:55;52.50;;;20.67;;
6928;SDS011;3504;52.616;13.238;2022-12-18T05:39:57;58.50;;;22.33;;
6928;SDS011;3504;52.616;13.238;2022-12-18T05:44:57;56.57;;;22.03;;
6928;SDS011;3504;52.616;13.238;2022-12-18T05:49:58;66.53;;;23.33;;
6928;SDS011;3504;52.616;13.238;2022-12-18T05:54:58;68.20;;;27.10;;
6928;SDS011;3504;52.616;13.238;2022-12-18T05:59:59;66.70;;;25.20;;
6928;SDS011;3504;52.616;13.238;2022-12-18T06:05:00;65.20;;;24.90;;
6928;SDS011;3504;52.616;13.238;2022-12-18T06:10:00;74.10;;;26.07;;
6928;SDS011;3504;52.616;13.238;2022-12-18T06:15:01;74.60;;;25.87;;
6928;SDS011;3504;52.616;13.238;2022-12-18T06:20:02;82.97;;;30.30;;
6928;SDS011;3504;52.616;13.238;2022-12-18T06:25:04;80.50;;;26.83;;
6928;SDS011;3504;52.616;13.238;2022-12-18T06:30:06;88.93;;;28.77;;
6928;SDS011;3504;52.616;13.238;2022-12-18T06:35:07;92.83;;;30.03;;
6928;SDS011;3504;52.616;13.238;2022-12-18T06:40:08;82.40;;;29.83;;
6928;SDS011;3504;52.616;13.238;2022-12-18T06:45:09;92.53;;;31.33;;
6928;SDS011;3504;52.616;13.238;2022-12-18T06:50:10;93.00;;;30.60;;
6928;SDS011;3504;52.616;13.238;2022-12-18T06:55:11;87.63;;;31.37;;
6928;SDS011;3504;52.616;13.238;2022-12-18T07:00:12;77.67;;;27.43;;
6928;SDS011;3504;52.616;13.238;2022-12-18T07:05:13;80.47;;;29.63;;
6928;SDS011;3504;52.616;13.238;2022-12-18T07:10:14;77.40;;;28.37;;
6928;SDS011;3504;52.616;13.238;2022-12-18T07:15:14;67.83;;;25.90;;
6928;SDS011;3504;52.616;13.238;2022-12-18T07:20:15;67.73;;;26.50;;
6928;SDS011;3504;52.616;13.238;2022-12-18T07:25:15;66.27;;;25.40;;
6928;SDS011;3504;52.616;13.238;2022-12-18T07:30:16;72.93;;;26.80;;
6928;SDS011;3504;52.616;13.238;2022-12-18T07:35:16;73.80;;;27.47;;
6928;SDS011;3504;52.616;13.238;2022-12-18T07:40:17;84.70;;;30.37;;
6928;SDS011;3504;52.616;13.238;2022-12-18T07:45:17;87.57;;;32.00;;
6928;SDS011;3504;52.616;13.238;2022-12-18T07:50:18;82.47;;;31.13;;
6928;SDS011;3504;52.616;13.238;2022-12-18T07:55:18;94.63;;;30.17;;
6928;SDS011;3504;52.616;13.238;2022-12-18T08:00:19;92.93;;;31.23;;
6928;SDS011;3504;52.616;13.238;2022-12-18T08:05:20;87.03;;;29.13;;
6928;SDS011;3504;52.616;13.238;2022-12-18T08:10:20;78.00;;;27.90;;
6928;SDS011;3504;52.616;13.238;2022-12-18T08:15:21;76.90;;;27.33;;
6928;SDS011;3504;52.616;13.238;2022-12-18T08:20:22;69.30;;;25.43;;
6928;SDS011;3504;52.616;13.238;2022-12-18T08:25:22;70.87;;;24.83;;
6928;SDS011;3504;52.616;13.238;2022-12-18T08:30:23;64.70;;;22.97;;
6928;SDS011;3504;52.616;13.238;2022-12-18T08:35:26;54.70;;;22.10;;
6928;SDS011;3504;52.616;13.238;2022-12-18T08:40:27;54.43;;;22.37;;
6928;SDS011;3504;52.616;13.238;2022-12-18T08:45:27;56.63;;;22.07;;
6928;SDS011;3504;52.616;13.238;2022-12-18T08:50:28;58.60;;;24.00;;
6928;SDS011;3504;52.616;13.238;2022-12-18T08:55:28;57.67;;;22.60;;
6928;SDS011;3504;52.616;13.238;2022-12-18T09:00:29;62.60;;;24.27;;
6928;SDS011;3504;52.616;13.238;2022-12-18T09:05:33;60.13;;;23.23;;
6928;SDS011;3504;52.616;13.238;2022-12-18T09:10:34;63.30;;;22.67;;
6928;SDS011;3504;52.616;13.238;2022-12-18T09:15:48;61.33;;;23.33;;
6928;SDS011;3504;52.616;13.238;2022-12-18T09:20:53;62.73;;;24.90;;
6928;SDS011;3504;52.616;13.238;2022-12-18T09:25:58;63.47;;;23.77;;
6928;SDS011;3504;52.616;13.238;2022-12-18T09:31:03;60.70;;;24.07;;
6928;SDS011;3504;52.616;13.238;2022-12-18T09:36:07;63.83;;;23.50;;
6928;SDS011;3504;52.616;13.238;2022-12-18T09:41:24;62.83;;;24.73;;
6928;SDS011;3504;52.616;13.238;2022-12-18T09:46:41;66.83;;;25.57;;
6928;SDS011;3504;52.616;13.238;2022-12-18T09:51:54;62.97;;;25.27;;
6928;SDS011;3504;52.616;13.238;2022-12-18T09:57:01;58.80;;;22.97;;
6928;SDS011;3504;52.616;13.238;2022-12-18T10:02:15;64.07;;;24.70;;
6928;SDS011;3504;52.616;13.238;2022-12-18T10:07:43;70.03;;;24.43;;
6928;SDS011;3504;52.616;13.238;2022-12-18T10:23:58;51.93;;;22.50;;
6928;SDS011;3504;52.616;13.238;2022-12-18T10:29:30;57.33;;;23.33;;
6928;SDS011;3504;52.616;13.238;2022-12-18T10:34:31;50.17;;;21.40;;
6928;SDS011;3504;52.616;13.238;2022-12-18T10:39:31;55.93;;;22.70;;
6928;SDS011;3504;52.616;13.238;2022-12-18T10:44:34;55.10;;;22.40;;
6928;SDS011;3504;52.616;13.238;2022-12-18T10:49:35;53.10;;;22.37;;
6928;SDS011;3504;52.616;13.238;2022-12-18T10:54:35;54.10;;;21.40;;
6928;SDS011;3504;52.616;13.238;2022-12-18T10:59:50;53.47;;;22.37;;
6928;SDS011;3504;52.616;13.238;2022-12-18T11:04:56;47.07;;;20.07;;
6928;SDS011;3504;52.616;13.238;2022-12-18T11:10:02;52.20;;;21.70;;
6928;SDS011;3504;52.616;13.238;2022-12-18T11:15:03;60.17;;;22.47;;
6928;SDS011;3504;52.616;13.238;2022-12-18T11:20:05;60.00;;;23.23;;
6928;SDS011;3504;52.616;13.238;2022-12-18T11:25:27;69.73;;;25.23;;
6928;SDS011;3504;52.616;13.238;2022-12-18T11:30:37;56.63;;;23.13;;
6928;SDS011;3504;52.616;13.238;2022-12-18T11:35:53;60.63;;;24.13;;
6928;SDS011;3504;52.616;13.238;2022-12-18T11:40:59;61.97;;;24.60;;
6928;SDS011;3504;52.616;13.238;2022-12-18T11:46:06;60.47;;;24.93;;
6928;SDS011;3504;52.616;13.238;2022-12-18T11:51:19;59.77;;;24.23;;
6928;SDS011;3504;52.616;13.238;2022-12-18T11:56:32;67.33;;;25.13;;
6928;SDS011;3504;52.616;13.238;2022-12-18T12:01:46;59.73;;;24.87;;
6928;SDS011;3504;52.616;13.238;2022-12-18T12:18:08;59.03;;;24.80;;
6928;SDS011;3504;52.616;13.238;2022-12-18T12:24:03;61.17;;;24.97;;
6928;SDS011;3504;52.616;13.238;2022-12-18T12:29:47;49.80;;;22.20;;
6928;SDS011;3504;52.616;13.238;2022-12-18T12:41:05;60.40;;;22.70;;
6928;SDS011;3504;52.616;13.238;2022-12-18T12:46:30;53.43;;;23.53;;
6928;SDS011;3504;52.616;13.238;2022-12-18T12:51:35;53.37;;;22.23;;
6928;SDS011;3504;52.616;13.238;2022-12-18T12:56:42;55.57;;;22.83;;
6928;SDS011;3504;52.616;13.238;2022-12-18T13:02:03;53.50;;;21.93;;
6928;SDS011;3504;52.616;13.238;2022-12-18T13:12:30;46.93;;;22.17;;
6928;SDS011;3504;52.616;13.238;2022-12-18T13:18:23;55.00;;;22.03;;
6928;SDS011;3504;52.616;13.238;2022-12-18T13:33:37;49.57;;;20.00;;
6928;SDS011;3504;52.616;13.238;2022-12-18T13:38:45;54.53;;;23.10;;
6928;SDS011;3504;52.616;13.238;2022-12-18T13:43:50;45.37;;;21.87;;
6928;SDS011;3504;52.616;13.238;2022-12-18T13:49:02;49.33;;;21.40;;
6928;SDS011;3504;52.616;13.238;2022-12-18T13:59:40;43.10;;;19.97;;
6928;SDS011;3504;52.616;13.238;2022-12-18T14:04:40;44.87;;;21.03;;
6928;SDS011;3504;52.616;13.238;2022-12-18T14:09:42;44.13;;;20.73;;
6928;SDS011;3504;52.616;13.238;2022-12-18T14:14:49;43.73;;;19.87;;
6928;SDS011;3504;52.616;13.238;2022-12-18T14:19:51;48.60;;;20.93;;
6928;SDS011;3504;52.616;13.238;2022-12-18T14:30:30;46.23;;;22.63;;
6928;SDS011;3504;52.616;13.238;2022-12-18T14:35:38;46.40;;;23.17;;
6928;SDS011;3504;52.616;13.238;2022-12-18T14:40:57;50.83;;;22.70;;
6928;SDS011;3504;52.616;13.238;2022-12-18T14:46:05;46.97;;;23.87;;
6928;SDS011;3504;52.616;13.238;2022-12-18T14:51:25;55.53;;;24.97;;
6928;SDS011;3504;52.616;13.238;2022-12-18T14:56:32;66.77;;;30.30;;
6928;SDS011;3504;52.616;13.238;2022-12-18T15:01:36;56.30;;;28.10;;
6928;SDS011;3504;52.616;13.238;2022-12-18T15:06:44;51.13;;;25.87;;
6928;SDS011;3504;52.616;13.238;2022-12-18T15:11:46;52.80;;;24.07;;
6928;SDS011;3504;52.616;13.238;2022-12-18T15:16:53;62.23;;;26.53;;
6928;SDS011;3504;52.616;13.238;2022-12-18T15:21:54;53.67;;;24.63;;
6928;SDS011;3504;52.616;13.238;2022-12-18T15:26:58;50.37;;;25.43;;
6928;SDS011;3504;52.616;13.238;2022-12-18T15:32:04;56.83;;;25.03;;
6928;SDS011;3504;52.616;13.238;2022-12-18T15:37:15;54.67;;;26.97;;
6928;SDS011;3504;52.616;13.238;2022-12-18T15:42:16;40.60;;;21.40;;
6928;SDS011;3504;52.616;13.238;2022-12-18T15:47:35;43.67;;;21.63;;
6928;SDS011;3504;52.616;13.238;2022-12-18T15:52:42;37.80;;;19.77;;
6928;SDS011;3504;52.616;13.238;2022-12-18T15:57:45;34.93;;;18.80;;
6928;SDS011;3504;52.616;13.238;2022-12-18T16:02:46;35.70;;;18.97;;
6928;SDS011;3504;52.616;13.238;2022-12-18T16:07:46;39.63;;;20.13;;
6928;SDS011;3504;52.616;13.238;2022-12-18T16:12:47;35.70;;;20.60;;
6928;SDS011;3504;52.616;13.238;2022-12-18T16:17:48;46.93;;;23.00;;
6928;SDS011;3504;52.616;13.238;2022-12-18T16:22:49;40.50;;;20.10;;
6928;SDS011;3504;52.616;13.238;2022-12-18T16:27:50;39.27;;;19.47;;
6928;SDS011;3504;52.616;13.238;2022-12-18T16:32:51;30.03;;;17.30;;
6928;SDS011;3504;52.616;13.238;2022-12-18T16:37:52;35.67;;;18.63;;
6928;SDS011;3504;52.616;13.238;2022-12-18T16:42:52;36.70;;;19.33;;
6928;SDS011;3504;52.616;13.238;2022-12-18T16:47:53;38.13;;;20.13;;
6928;SDS011;3504;52.616;13.238;2022-12-18T16:52:53;39.10;;;20.40;;
6928;SDS011;3504;52.616;13.238;2022-12-18T16:57:54;37.77;;;19.60;;
6928;SDS011;3504;52.616;13.238;2022-12-18T17:02:54;38.43;;;19.70;;
6928;SDS011;3504;52.616;13.238;2022-12-18T17:07:55;38.13;;;19.67;;
6928;SDS011;3504;52.616;13.238;2022-12-18T17:12:55;38.53;;;19.83;;
6928;SDS011;3504;52.616;13.238;2022-12-18T17:17:56;36.93;;;19.43;;
6928;SDS011;3504;52.616;13.238;2022-12-18T17:22:57;37.90;;;19.63;;
6928;SDS011;3504;52.616;13.238;2022-12-18T17:27:57;40.20;;;20.97;;
6928;SDS011;3504;52.616;13.238;2022-12-18T17:32:58;39.77;;;21.37;;
6928;SDS011;3504;52.616;13.238;2022-12-18T17:37:58;44.70;;;24.27;;
6928;SDS011;3504;52.616;13.238;2022-12-18T17:42:59;46.90;;;23.70;;
6928;SDS011;3504;52.616;13.238;2022-12-18T17:47:59;43.47;;;23.53;;
6928;SDS011;3504;52.616;13.238;2022-12-18T17:53:00;47.43;;;22.93;;
6928;SDS011;3504;52.616;13.238;2022-12-18T17:58:01;50.20;;;23.90;;
6928;SDS011;3504;52.616;13.238;2022-12-18T18:03:01;45.20;;;22.13;;
6928;SDS011;3504;52.616;13.238;2022-12-18T18:08:02;38.47;;;20.20;;
6928;SDS011;3504;52.616;13.238;2022-12-18T18:13:04;42.93;;;22.47;;
6928;SDS011;3504;52.616;13.238;2022-12-18T18:18:24;43.10;;;22.60;;
6928;SDS011;3504;52.616;13.238;2022-12-18T18:23:25;44.40;;;23.30;;
6928;SDS011;3504;52.616;13.238;2022-12-18T18:28:30;48.53;;;24.10;;
6928;SDS011;3504;52.616;13.238;2022-12-18T18:33:31;47.40;;;23.77;;
6928;SDS011;3504;52.616;13.238;2022-12-18T18:38:32;43.80;;;24.37;;
6928;SDS011;3504;52.616;13.238;2022-12-18T18:43:33;55.63;;;25.13;;
6928;SDS011;3504;52.616;13.238;2022-12-18T18:48:34;48.53;;;23.93;;
6928;SDS011;3504;52.616;13.238;2022-12-18T18:53:37;51.23;;;24.20;;
6928;SDS011;3504;52.616;13.238;2022-12-18T18:58:39;50.33;;;26.20;;
6928;SDS011;3504;52.616;13.238;2022-12-18T19:03:40;51.77;;;25.17;;
6928;SDS011;3504;52.616;13.238;2022-12-18T19:08:41;49.33;;;25.43;;
6928;SDS011;3504;52.616;13.238;2022-12-18T19:13:42;53.83;;;25.83;;
6928;SDS011;3504;52.616;13.238;2022-12-18T19:18:44;55.20;;;25.03;;
6928;SDS011;3504;52.616;13.238;2022-12-18T19:23:50;53.30;;;24.47;;
6928;SDS011;3504;52.616;13.238;2022-12-18T19:28:50;52.63;;;26.07;;
6928;SDS011;3504;52.616;13.238;2022-12-18T19:33:51;54.27;;;27.47;;
6928;SDS011;3504;52.616;13.238;2022-12-18T19:38:52;57.60;;;26.70;;
6928;SDS011;3504;52.616;13.238;2022-12-18T19:43:54;51.63;;;26.37;;
6928;SDS011;3504;52.616;13.238;2022-12-18T19:48:57;52.70;;;25.73;;
6928;SDS011;3504;52.616;13.238;2022-12-18T19:53:59;60.33;;;27.57;;
6928;SDS011;3504;52.616;13.238;2022-12-18T19:59:01;52.23;;;25.57;;
6928;SDS011;3504;52.616;13.238;2022-12-18T20:04:03;54.53;;;26.70;;
6928;SDS011;3504;52.616;13.238;2022-12-18T20:09:04;52.40;;;25.67;;
6928;SDS011;3504;52.616;13.238;2022-12-18T20:14:05;61.57;;;26.73;;
6928;SDS011;3504;52.616;13.238;2022-12-18T20:19:06;53.97;;;24.83;;
6928;SDS011;3504;52.616;13.238;2022-12-18T20:24:09;61.10;;;26.93;;
6928;SDS011;3504;52.616;13.238;2022-12-18T20:29:10;53.53;;;26.33;;
6928;SDS011;3504;52.616;13.238;2022-12-18T20:34:10;53.03;;;24.57;;
6928;SDS011;3504;52.616;13.238;2022-12-18T20:39:11;50.40;;;25.80;;
6928;SDS011;3504;52.616;13.238;2022-12-18T20:44:12;49.50;;;24.00;;
6928;SDS011;3504;52.616;13.238;2022-12-18T20:49:15;56.87;;;24.90;;
6928;SDS011;3504;52.616;13.238;2022-12-18T20:54:15;55.57;;;25.27;;
6928;SDS011;3504;52.616;13.238;2022-12-18T20:59:18;49.37;;;24.73;;
6928;SDS011;3504;52.616;13.238;2022-12-18T21:04:19;48.10;;;23.93;;
6928;SDS011;3504;52.616;13.238;2022-12-18T21:09:21;50.83;;;25.20;;
6928;SDS011;3504;52.616;13.238;2022-12-18T21:14:23;55.17;;;25.53;;
6928;SDS011;3504;52.616;13.238;2022-12-18T21:19:27;48.00;;;24.30;;
6928;SDS011;3504;52.616;13.238;2022-12-18T21:24:28;51.23;;;24.73;;
6928;SDS011;3504;52.616;13.238;2022-12-18T21:29:28;55.50;;;24.60;;
6928;SDS011;3504;52.616;13.238;2022-12-18T21:34:29;48.20;;;23.33;;
6928;SDS011;3504;52.616;13.238;2022-12-18T21:39:31;49.83;;;23.60;;
6928;SDS011;3504;52.616;13.238;2022-12-18T21:44:32;50.30;;;23.00;;
6928;SDS011;3504;52.616;13.238;2022-12-18T21:49:32;49.23;;;23.60;;
6928;SDS011;3504;52.616;13.238;2022-12-18T21:54:33;56.10;;;24.67;;
6928;SDS011;3504;52.616;13.238;2022-12-18T21:59:35;54.13;;;24.13;;
6928;SDS011;3504;52.616;13.238;2022-12-18T22:04:38;54.10;;;24.73;;
6928;SDS011;3504;52.616;13.238;2022-12-18T22:09:38;54.30;;;24.47;;
6928;SDS011;3504;52.616;13.238;2022-12-18T22:14:39;51.63;;;24.70;;
6928;SDS011;3504;52.616;13.238;2022-12-18T22:19:39;53.67;;;23.63;;
6928;SDS011;3504;52.616;13.238;2022-12-18T22:24:40;45.70;;;23.80;;
6928;SDS011;3504;52.616;13.238;2022-12-18T22:29:40;47.47;;;23.73;;
6928;SDS011;3504;52.616;13.238;2022-12-18T22:35:00;51.17;;;22.73;;
6928;SDS011;3504;52.616;13.238;2022-12-18T22:40:04;50.63;;;22.60;;
6928;SDS011;3504;52.616;13.238;2022-12-18T22:45:05;48.73;;;23.90;;
6928;SDS011;3504;52.616;13.238;2022-12-18T22:50:06;45.40;;;21.00;;
6928;SDS011;3504;52.616;13.238;2022-12-18T22:55:08;42.53;;;20.77;;
6928;SDS011;3504;52.616;13.238;2022-12-18T23:00:09;40.53;;;18.93;;
6928;SDS011;3504;52.616;13.238;2022-12-18T23:05:10;44.00;;;21.13;;
6928;SDS011;3504;52.616;13.238;2022-12-18T23:10:11;43.63;;;19.37;;
6928;SDS011;3504;52.616;13.238;2022-12-18T23:15:11;43.90;;;19.70;;
6928;SDS011;3504;52.616;13.238;2022-12-18T23:20:12;43.83;;;19.60;;
6928;SDS011;3504;52.616;13.238;2022-12-18T23:25:12;41.13;;;19.37;;
6928;SDS011;3504;52.616;13.238;2022-12-18T23:30:13;44.13;;;19.70;;
6928;SDS011;3504;52.616;13.238;2022-12-18T23:35:14;36.20;;;18.33;;
6928;SDS011;3504;52.616;13.238;2022-12-18T23:40:15;37.30;;;18.33;;
6928;SDS011;3504;52.616;13.238;2022-12-18T23:45:16;38.63;;;17.97;;
6928;SDS011;3504;52.616;13.238;2022-12-18T23:50:16;35.50;;;18.23;;
6928;SDS011;3504;52.616;13.238;2022-12-18T23:55:17;36.87;;;18.20;;
